sensor_id;sensor_type;location;lat;lon;timestamp;temperature;humidity
32865;DHT22;19219;44.500;11.188;2022-10-15T00:00:30;13.70;99.90
32865;DHT22;19219;44.500;11.188;2022-10-15T00:02:55;13.60;99.90
32865;DHT22;19219;44.500;11.188;2022-10-15T00:05:22;13.50;99.90
32865;DHT22;19219;44.500;11.188;2022-10-15T00:07:47;13.50;99.90
32865;DHT22;19219;44.500;11.188;2022-10-15T00:10:13;13.50;99.90
32865;DHT22;19219;44.500;11.188;2022-10-15T00:12:40;13.50;99.90
32865;DHT22;19219;44.500;11.188;2022-10-15T00:15:07;13.50;99.90
32865;DHT22;19219;44.500;11.188;2022-10-15T00:17:33;13.50;99.90
32865;DHT22;19219;44.500;11.188;2022-10-15T00:20:00;13.50;99.90
32865;DHT22;19219;44.500;11.188;2022-10-15T00:22:26;13.60;99.90
32865;DHT22;19219;44.500;11.188;2022-10-15T00:24:52;13.60;99.90
32865;DHT22;19219;44.500;11.188;2022-10-15T00:27:17;13.50;99.90
32865;DHT22;19219;44.500;11.188;2022-10-15T00:29:43;13.50;99.90
32865;DHT22;19219;44.500;11.188;2022-10-15T00:32:09;13.40;99.90
32865;DHT22;19219;44.500;11.188;2022-10-15T00:34:34;13.40;99.90
32865;DHT22;19219;44.500;11.188;2022-10-15T00:37:00;13.40;99.90
32865;DHT22;19219;44.500;11.188;2022-10-15T00:39:26;13.50;99.90
32865;DHT22;19219;44.500;11.188;2022-10-15T00:41:51;13.60;99.90
32865;DHT22;19219;44.500;11.188;2022-10-15T00:46:48;13.50;99.90
32865;DHT22;19219;44.500;11.188;2022-10-15T00:49:24;13.40;99.90
32865;DHT22;19219;44.500;11.188;2022-10-15T00:52:02;13.50;99.90
32865;DHT22;19219;44.500;11.188;2022-10-15T00:54:33;13.50;99.90
32865;DHT22;19219;44.500;11.188;2022-10-15T00:57:01;13.50;99.90
32865;DHT22;19219;44.500;11.188;2022-10-15T00:59:27;13.50;99.90
32865;DHT22;19219;44.500;11.188;2022-10-15T01:01:54;13.50;99.90
32865;DHT22;19219;44.500;11.188;2022-10-15T01:04:21;13.50;99.90
32865;DHT22;19219;44.500;11.188;2022-10-15T01:06:48;13.50;99.90
32865;DHT22;19219;44.500;11.188;2022-10-15T01:09:13;13.40;99.90
32865;DHT22;19219;44.500;11.188;2022-10-15T01:11:48;13.50;99.90
32865;DHT22;19219;44.500;11.188;2022-10-15T01:14:35;13.50;99.90
32865;DHT22;19219;44.500;11.188;2022-10-15T01:17:10;13.50;99.90
32865;DHT22;19219;44.500;11.188;2022-10-15T01:27:56;13.50;99.90
32865;DHT22;19219;44.500;11.188;2022-10-15T01:33:04;13.40;99.90
32865;DHT22;19219;44.500;11.188;2022-10-15T01:35:46;13.50;99.90
32865;DHT22;19219;44.500;11.188;2022-10-15T01:41:06;13.50;99.90
32865;DHT22;19219;44.500;11.188;2022-10-15T01:43:47;13.50;99.90
32865;DHT22;19219;44.500;11.188;2022-10-15T01:46:20;13.50;99.90
32865;DHT22;19219;44.500;11.188;2022-10-15T01:48:49;13.40;99.90
32865;DHT22;19219;44.500;11.188;2022-10-15T01:51:18;13.40;99.90
32865;DHT22;19219;44.500;11.188;2022-10-15T01:53:45;13.40;99.90
32865;DHT22;19219;44.500;11.188;2022-10-15T01:56:16;13.40;99.90
32865;DHT22;19219;44.500;11.188;2022-10-15T01:58:44;13.40;99.90
32865;DHT22;19219;44.500;11.188;2022-10-15T02:01:11;13.40;99.90
32865;DHT22;19219;44.500;11.188;2022-10-15T02:03:48;13.40;99.90
32865;DHT22;19219;44.500;11.188;2022-10-15T02:06:31;13.50;99.90
32865;DHT22;19219;44.500;11.188;2022-10-15T02:14:32;13.70;99.90
32865;DHT22;19219;44.500;11.188;2022-10-15T02:17:07;13.80;99.90
32865;DHT22;19219;44.500;11.188;2022-10-15T02:19:48;13.80;99.90
32865;DHT22;19219;44.500;11.188;2022-10-15T02:27:17;13.80;99.90
32865;DHT22;19219;44.500;11.188;2022-10-15T02:29:46;13.70;99.90
32865;DHT22;19219;44.500;11.188;2022-10-15T02:32:14;13.70;99.90
32865;DHT22;19219;44.500;11.188;2022-10-15T02:34:40;13.70;99.90
32865;DHT22;19219;44.500;11.188;2022-10-15T02:37:07;13.70;99.90
32865;DHT22;19219;44.500;11.188;2022-10-15T02:39:34;13.70;99.90
32865;DHT22;19219;44.500;11.188;2022-10-15T02:42:00;13.80;99.90
32865;DHT22;19219;44.500;11.188;2022-10-15T02:44:26;13.80;99.90
32865;DHT22;19219;44.500;11.188;2022-10-15T02:46:52;13.90;99.90
32865;DHT22;19219;44.500;11.188;2022-10-15T02:49:19;13.80;99.90
32865;DHT22;19219;44.500;11.188;2022-10-15T02:51:45;13.80;99.90
32865;DHT22;19219;44.500;11.188;2022-10-15T02:54:10;13.80;99.90
32865;DHT22;19219;44.500;11.188;2022-10-15T02:56:36;13.80;99.90
32865;DHT22;19219;44.500;11.188;2022-10-15T02:59:04;13.70;99.90
32865;DHT22;19219;44.500;11.188;2022-10-15T03:01:30;13.70;99.90
32865;DHT22;19219;44.500;11.188;2022-10-15T03:03:57;13.60;99.90
32865;DHT22;19219;44.500;11.188;2022-10-15T03:06:22;13.60;99.90
32865;DHT22;19219;44.500;11.188;2022-10-15T03:08:48;13.50;99.90
32865;DHT22;19219;44.500;11.188;2022-10-15T03:11:14;13.50;99.90
32865;DHT22;19219;44.500;11.188;2022-10-15T03:13:39;13.50;99.90
32865;DHT22;19219;44.500;11.188;2022-10-15T03:16:07;13.50;99.90
32865;DHT22;19219;44.500;11.188;2022-10-15T03:18:33;13.40;99.90
32865;DHT22;19219;44.500;11.188;2022-10-15T03:20:59;13.40;99.90
32865;DHT22;19219;44.500;11.188;2022-10-15T03:23:25;13.40;99.90
32865;DHT22;19219;44.500;11.188;2022-10-15T03:25:51;13.30;99.90
32865;DHT22;19219;44.500;11.188;2022-10-15T03:28:17;13.30;99.90
32865;DHT22;19219;44.500;11.188;2022-10-15T03:30:42;13.20;99.90
32865;DHT22;19219;44.500;11.188;2022-10-15T03:33:08;13.20;99.90
32865;DHT22;19219;44.500;11.188;2022-10-15T03:35:34;13.20;99.90
32865;DHT22;19219;44.500;11.188;2022-10-15T03:38:00;13.10;99.90
32865;DHT22;19219;44.500;11.188;2022-10-15T03:40:25;13.10;99.90
32865;DHT22;19219;44.500;11.188;2022-10-15T03:42:51;13.00;99.90
32865;DHT22;19219;44.500;11.188;2022-10-15T03:45:20;12.90;99.90
32865;DHT22;19219;44.500;11.188;2022-10-15T03:47:46;12.80;99.90
32865;DHT22;19219;44.500;11.188;2022-10-15T03:50:12;12.80;99.90
32865;DHT22;19219;44.500;11.188;2022-10-15T03:52:38;12.70;99.90
32865;DHT22;19219;44.500;11.188;2022-10-15T03:55:05;12.70;99.90
32865;DHT22;19219;44.500;11.188;2022-10-15T03:57:31;12.80;99.90
32865;DHT22;19219;44.500;11.188;2022-10-15T03:59:56;12.80;99.90
32865;DHT22;19219;44.500;11.188;2022-10-15T04:02:22;12.90;99.90
32865;DHT22;19219;44.500;11.188;2022-10-15T04:04:51;12.90;99.90
32865;DHT22;19219;44.500;11.188;2022-10-15T04:07:18;12.90;99.90
32865;DHT22;19219;44.500;11.188;2022-10-15T04:09:43;12.90;99.90
32865;DHT22;19219;44.500;11.188;2022-10-15T04:12:09;12.70;99.90
32865;DHT22;19219;44.500;11.188;2022-10-15T04:14:35;12.70;99.90
32865;DHT22;19219;44.500;11.188;2022-10-15T04:17:00;12.60;99.90
32865;DHT22;19219;44.500;11.188;2022-10-15T04:19:26;12.50;99.90
32865;DHT22;19219;44.500;11.188;2022-10-15T04:21:52;12.30;99.90
32865;DHT22;19219;44.500;11.188;2022-10-15T04:24:18;12.30;99.90
32865;DHT22;19219;44.500;11.188;2022-10-15T04:26:43;12.30;99.90
32865;DHT22;19219;44.500;11.188;2022-10-15T04:29:09;12.30;99.90
32865;DHT22;19219;44.500;11.188;2022-10-15T04:31:35;12.30;99.90
32865;DHT22;19219;44.500;11.188;2022-10-15T04:34:02;12.30;99.90
32865;DHT22;19219;44.500;11.188;2022-10-15T04:36:28;12.30;99.90
32865;DHT22;19219;44.500;11.188;2022-10-15T04:38:54;12.20;99.90
32865;DHT22;19219;44.500;11.188;2022-10-15T04:41:19;12.20;99.90
32865;DHT22;19219;44.500;11.188;2022-10-15T04:43:45;12.20;99.90
32865;DHT22;19219;44.500;11.188;2022-10-15T04:46:11;12.20;99.90
32865;DHT22;19219;44.500;11.188;2022-10-15T04:48:38;12.30;99.90
32865;DHT22;19219;44.500;11.188;2022-10-15T04:51:10;12.30;99.90
32865;DHT22;19219;44.500;11.188;2022-10-15T04:53:36;12.40;99.90
32865;DHT22;19219;44.500;11.188;2022-10-15T04:56:04;12.50;99.90
32865;DHT22;19219;44.500;11.188;2022-10-15T04:58:31;12.40;99.90
32865;DHT22;19219;44.500;11.188;2022-10-15T05:01:02;12.40;99.90
32865;DHT22;19219;44.500;11.188;2022-10-15T05:03:28;12.40;99.90
32865;DHT22;19219;44.500;11.188;2022-10-15T05:06:02;12.40;99.90
32865;DHT22;19219;44.500;11.188;2022-10-15T05:08:29;12.30;99.90
32865;DHT22;19219;44.500;11.188;2022-10-15T05:11:00;12.30;99.90
32865;DHT22;19219;44.500;11.188;2022-10-15T05:13:26;12.20;99.90
32865;DHT22;19219;44.500;11.188;2022-10-15T05:15:52;12.20;99.90
32865;DHT22;19219;44.500;11.188;2022-10-15T05:18:18;12.10;99.90
32865;DHT22;19219;44.500;11.188;2022-10-15T05:20:43;12.20;99.90
32865;DHT22;19219;44.500;11.188;2022-10-15T05:23:09;12.20;99.90
32865;DHT22;19219;44.500;11.188;2022-10-15T05:25:35;12.20;99.90
32865;DHT22;19219;44.500;11.188;2022-10-15T05:28:00;12.20;99.90
32865;DHT22;19219;44.500;11.188;2022-10-15T05:30:26;12.10;99.90
32865;DHT22;19219;44.500;11.188;2022-10-15T05:32:52;12.10;99.90
32865;DHT22;19219;44.500;11.188;2022-10-15T05:35:18;12.10;99.90
32865;DHT22;19219;44.500;11.188;2022-10-15T05:37:44;12.20;99.90
32865;DHT22;19219;44.500;11.188;2022-10-15T05:40:10;12.20;99.90
32865;DHT22;19219;44.500;11.188;2022-10-15T05:42:36;12.30;99.90
32865;DHT22;19219;44.500;11.188;2022-10-15T05:45:02;12.20;99.90
32865;DHT22;19219;44.500;11.188;2022-10-15T05:47:28;12.10;99.90
32865;DHT22;19219;44.500;11.188;2022-10-15T05:49:53;12.20;99.90
32865;DHT22;19219;44.500;11.188;2022-10-15T05:52:19;12.20;99.90
32865;DHT22;19219;44.500;11.188;2022-10-15T05:54:45;12.30;99.90
32865;DHT22;19219;44.500;11.188;2022-10-15T05:57:10;12.40;99.90
32865;DHT22;19219;44.500;11.188;2022-10-15T05:59:36;12.50;99.90
32865;DHT22;19219;44.500;11.188;2022-10-15T06:02:02;12.60;99.90
32865;DHT22;19219;44.500;11.188;2022-10-15T06:04:27;12.60;99.90
32865;DHT22;19219;44.500;11.188;2022-10-15T06:06:53;12.70;99.90
32865;DHT22;19219;44.500;11.188;2022-10-15T06:09:18;12.80;99.90
32865;DHT22;19219;44.500;11.188;2022-10-15T06:11:44;12.90;99.90
32865;DHT22;19219;44.500;11.188;2022-10-15T06:14:10;12.90;99.90
32865;DHT22;19219;44.500;11.188;2022-10-15T06:16:36;13.00;99.90
32865;DHT22;19219;44.500;11.188;2022-10-15T06:19:02;13.00;99.90
32865;DHT22;19219;44.500;11.188;2022-10-15T06:21:28;13.00;99.90
32865;DHT22;19219;44.500;11.188;2022-10-15T06:23:53;13.10;99.90
32865;DHT22;19219;44.500;11.188;2022-10-15T06:26:19;13.10;99.90
32865;DHT22;19219;44.500;11.188;2022-10-15T06:28:44;13.20;99.90
32865;DHT22;19219;44.500;11.188;2022-10-15T06:31:10;13.30;99.90
32865;DHT22;19219;44.500;11.188;2022-10-15T06:33:36;13.30;99.90
32865;DHT22;19219;44.500;11.188;2022-10-15T06:36:04;13.40;99.90
32865;DHT22;19219;44.500;11.188;2022-10-15T06:38:30;13.50;99.90
32865;DHT22;19219;44.500;11.188;2022-10-15T06:40:56;13.60;99.90
32865;DHT22;19219;44.500;11.188;2022-10-15T06:43:21;13.70;99.90
32865;DHT22;19219;44.500;11.188;2022-10-15T06:45:48;13.80;99.90
32865;DHT22;19219;44.500;11.188;2022-10-15T06:48:13;13.90;99.90
32865;DHT22;19219;44.500;11.188;2022-10-15T06:50:39;14.10;99.90
32865;DHT22;19219;44.500;11.188;2022-10-15T06:53:05;14.20;99.90
32865;DHT22;19219;44.500;11.188;2022-10-15T06:55:32;14.30;99.90
32865;DHT22;19219;44.500;11.188;2022-10-15T06:57:57;14.40;99.90
32865;DHT22;19219;44.500;11.188;2022-10-15T07:00:24;14.60;99.90
32865;DHT22;19219;44.500;11.188;2022-10-15T07:02:50;14.70;99.90
32865;DHT22;19219;44.500;11.188;2022-10-15T07:05:17;15.00;99.90
32865;DHT22;19219;44.500;11.188;2022-10-15T07:07:50;15.10;99.90
32865;DHT22;19219;44.500;11.188;2022-10-15T07:10:17;15.40;99.90
32865;DHT22;19219;44.500;11.188;2022-10-15T07:12:42;15.70;99.90
32865;DHT22;19219;44.500;11.188;2022-10-15T07:15:08;16.00;99.90
32865;DHT22;19219;44.500;11.188;2022-10-15T07:17:34;16.30;99.90
32865;DHT22;19219;44.500;11.188;2022-10-15T07:20:00;16.60;99.90
32865;DHT22;19219;44.500;11.188;2022-10-15T07:22:26;16.90;99.90
32865;DHT22;19219;44.500;11.188;2022-10-15T07:24:51;17.20;99.90
32865;DHT22;19219;44.500;11.188;2022-10-15T07:27:17;17.50;99.90
32865;DHT22;19219;44.500;11.188;2022-10-15T07:29:43;17.80;99.90
32865;DHT22;19219;44.500;11.188;2022-10-15T07:32:08;18.10;99.90
32865;DHT22;19219;44.500;11.188;2022-10-15T07:34:34;18.30;99.90
32865;DHT22;19219;44.500;11.188;2022-10-15T07:36:59;18.30;99.90
32865;DHT22;19219;44.500;11.188;2022-10-15T07:39:25;18.30;99.90
32865;DHT22;19219;44.500;11.188;2022-10-15T07:41:51;18.70;99.90
32865;DHT22;19219;44.500;11.188;2022-10-15T07:44:16;19.00;99.90
32865;DHT22;19219;44.500;11.188;2022-10-15T07:46:42;19.30;99.90
32865;DHT22;19219;44.500;11.188;2022-10-15T07:49:08;19.30;99.90
32865;DHT22;19219;44.500;11.188;2022-10-15T07:51:34;19.50;99.90
32865;DHT22;19219;44.500;11.188;2022-10-15T07:54:00;19.80;99.90
32865;DHT22;19219;44.500;11.188;2022-10-15T07:56:25;20.00;99.90
32865;DHT22;19219;44.500;11.188;2022-10-15T07:58:51;20.00;99.90
32865;DHT22;19219;44.500;11.188;2022-10-15T08:01:19;20.10;99.90
32865;DHT22;19219;44.500;11.188;2022-10-15T08:03:45;20.10;99.90
32865;DHT22;19219;44.500;11.188;2022-10-15T08:06:11;20.30;99.90
32865;DHT22;19219;44.500;11.188;2022-10-15T08:08:37;20.80;99.90
32865;DHT22;19219;44.500;11.188;2022-10-15T08:11:06;21.10;99.90
32865;DHT22;19219;44.500;11.188;2022-10-15T08:13:32;21.50;99.90
32865;DHT22;19219;44.500;11.188;2022-10-15T08:15:58;21.50;99.90
32865;DHT22;19219;44.500;11.188;2022-10-15T08:18:24;21.70;99.90
32865;DHT22;19219;44.500;11.188;2022-10-15T08:20:51;21.90;99.90
32865;DHT22;19219;44.500;11.188;2022-10-15T08:23:16;21.90;99.90
32865;DHT22;19219;44.500;11.188;2022-10-15T08:25:42;22.10;99.90
32865;DHT22;19219;44.500;11.188;2022-10-15T08:28:08;22.20;99.90
32865;DHT22;19219;44.500;11.188;2022-10-15T08:30:36;22.50;99.90
32865;DHT22;19219;44.500;11.188;2022-10-15T08:33:01;22.80;99.90
32865;DHT22;19219;44.500;11.188;2022-10-15T08:35:27;22.70;99.90
32865;DHT22;19219;44.500;11.188;2022-10-15T08:37:53;23.00;99.90
32865;DHT22;19219;44.500;11.188;2022-10-15T08:40:20;23.40;99.90
32865;DHT22;19219;44.500;11.188;2022-10-15T08:42:47;23.40;99.90
32865;DHT22;19219;44.500;11.188;2022-10-15T08:45:18;23.60;99.90
32865;DHT22;19219;44.500;11.188;2022-10-15T08:47:56;23.50;99.90
32865;DHT22;19219;44.500;11.188;2022-10-15T08:53:08;24.00;99.90
32865;DHT22;19219;44.500;11.188;2022-10-15T08:55:38;24.20;99.90
32865;DHT22;19219;44.500;11.188;2022-10-15T09:06:00;24.70;99.90
32865;DHT22;19219;44.500;11.188;2022-10-15T09:11:18;24.80;99.90
32865;DHT22;19219;44.500;11.188;2022-10-15T09:13:47;24.90;99.90
32865;DHT22;19219;44.500;11.188;2022-10-15T09:16:24;25.10;99.90
32865;DHT22;19219;44.500;11.188;2022-10-15T09:18:52;25.00;99.90
32865;DHT22;19219;44.500;11.188;2022-10-15T09:21:22;25.00;99.90
32865;DHT22;19219;44.500;11.188;2022-10-15T09:23:48;24.70;99.90
32865;DHT22;19219;44.500;11.188;2022-10-15T09:29:42;24.70;99.90
32865;DHT22;19219;44.500;11.188;2022-10-15T09:35:10;24.70;99.90
32865;DHT22;19219;44.500;11.188;2022-10-15T09:42:57;24.90;99.90
32865;DHT22;19219;44.500;11.188;2022-10-15T09:45:24;24.80;99.90
32865;DHT22;19219;44.500;11.188;2022-10-15T09:47:50;24.70;99.90
32865;DHT22;19219;44.500;11.188;2022-10-15T09:50:16;24.80;99.90
32865;DHT22;19219;44.500;11.188;2022-10-15T09:55:44;24.90;99.90
32865;DHT22;19219;44.500;11.188;2022-10-15T09:58:22;25.10;99.90
32865;DHT22;19219;44.500;11.188;2022-10-15T10:01:03;25.30;99.90
32865;DHT22;19219;44.500;11.188;2022-10-15T10:03:31;25.60;99.90
32865;DHT22;19219;44.500;11.188;2022-10-15T10:08:33;25.50;99.90
32865;DHT22;19219;44.500;11.188;2022-10-15T10:11:04;25.60;99.90
32865;DHT22;19219;44.500;11.188;2022-10-15T10:13:35;25.70;99.90
32865;DHT22;19219;44.500;11.188;2022-10-15T10:16:13;25.60;99.90
32865;DHT22;19219;44.500;11.188;2022-10-15T10:18:39;25.80;99.90
32865;DHT22;19219;44.500;11.188;2022-10-15T10:21:23;25.80;99.90
32865;DHT22;19219;44.500;11.188;2022-10-15T10:23:51;25.90;99.90
32865;DHT22;19219;44.500;11.188;2022-10-15T10:26:17;26.00;99.90
32865;DHT22;19219;44.500;11.188;2022-10-15T10:28:50;25.80;99.90
32865;DHT22;19219;44.500;11.188;2022-10-15T10:31:16;26.00;99.90
32865;DHT22;19219;44.500;11.188;2022-10-15T10:33:48;25.90;99.90
32865;DHT22;19219;44.500;11.188;2022-10-15T10:39:02;25.70;99.90
32865;DHT22;19219;44.500;11.188;2022-10-15T10:47:08;25.80;99.90
32865;DHT22;19219;44.500;11.188;2022-10-15T10:49:36;25.70;99.90
32865;DHT22;19219;44.500;11.188;2022-10-15T10:52:04;25.90;99.90
32865;DHT22;19219;44.500;11.188;2022-10-15T10:54:31;25.70;99.90
32865;DHT22;19219;44.500;11.188;2022-10-15T10:56:59;25.50;99.90
32865;DHT22;19219;44.500;11.188;2022-10-15T10:59:36;25.50;99.90
32865;DHT22;19219;44.500;11.188;2022-10-15T11:02:02;25.60;99.90
32865;DHT22;19219;44.500;11.188;2022-10-15T11:04:32;25.60;99.90
32865;DHT22;19219;44.500;11.188;2022-10-15T11:07:48;25.60;99.90
32865;DHT22;19219;44.500;11.188;2022-10-15T11:15:56;25.40;99.90
32865;DHT22;19219;44.500;11.188;2022-10-15T11:18:16;25.40;99.90
32865;DHT22;19219;44.500;11.188;2022-10-15T11:24:02;25.40;99.90
32865;DHT22;19219;44.500;11.188;2022-10-15T11:26:47;25.30;99.90
32865;DHT22;19219;44.500;11.188;2022-10-15T11:30:15;25.20;99.90
32865;DHT22;19219;44.500;11.188;2022-10-15T11:32:24;24.90;99.90
32865;DHT22;19219;44.500;11.188;2022-10-15T11:38:13;25.20;99.90
32865;DHT22;19219;44.500;11.188;2022-10-15T11:44:07;25.00;99.90
32865;DHT22;19219;44.500;11.188;2022-10-15T11:46:45;25.10;99.90
32865;DHT22;19219;44.500;11.188;2022-10-15T11:52:38;25.00;99.90
32865;DHT22;19219;44.500;11.188;2022-10-15T11:57:08;25.00;99.90
32865;DHT22;19219;44.500;11.188;2022-10-15T11:59:56;24.80;99.90
32865;DHT22;19219;44.500;11.188;2022-10-15T12:02:34;24.90;99.90
32865;DHT22;19219;44.500;11.188;2022-10-15T12:05:06;24.70;99.90
32865;DHT22;19219;44.500;11.188;2022-10-15T12:07:47;24.50;99.90
32865;DHT22;19219;44.500;11.188;2022-10-15T12:13:23;24.40;99.90
32865;DHT22;19219;44.500;11.188;2022-10-15T12:18:42;24.30;99.90
32865;DHT22;19219;44.500;11.188;2022-10-15T12:23:53;24.30;99.90
32865;DHT22;19219;44.500;11.188;2022-10-15T12:26:32;24.30;99.90
32865;DHT22;19219;44.500;11.188;2022-10-15T12:29:20;24.40;99.90
32865;DHT22;19219;44.500;11.188;2022-10-15T12:31:51;24.30;99.90
32865;DHT22;19219;44.500;11.188;2022-10-15T12:34:43;24.20;99.90
32865;DHT22;19219;44.500;11.188;2022-10-15T12:37:17;24.20;99.90
32865;DHT22;19219;44.500;11.188;2022-10-15T12:39:44;24.30;99.90
32865;DHT22;19219;44.500;11.188;2022-10-15T12:42:25;24.20;99.90
32865;DHT22;19219;44.500;11.188;2022-10-15T12:44:52;24.30;99.90
32865;DHT22;19219;44.500;11.188;2022-10-15T12:50:24;24.30;99.90
32865;DHT22;19219;44.500;11.188;2022-10-15T13:00:30;24.10;99.90
32865;DHT22;19219;44.500;11.188;2022-10-15T13:03:17;24.00;99.90
32865;DHT22;19219;44.500;11.188;2022-10-15T13:05:45;24.00;99.90
32865;DHT22;19219;44.500;11.188;2022-10-15T13:08:31;24.00;99.90
32865;DHT22;19219;44.500;11.188;2022-10-15T13:11:00;24.10;99.90
32865;DHT22;19219;44.500;11.188;2022-10-15T13:13:29;24.20;99.90
32865;DHT22;19219;44.500;11.188;2022-10-15T13:16:06;24.40;99.90
32865;DHT22;19219;44.500;11.188;2022-10-15T13:18:32;24.40;99.90
32865;DHT22;19219;44.500;11.188;2022-10-15T13:20:59;24.40;99.90
32865;DHT22;19219;44.500;11.188;2022-10-15T13:23:26;24.20;99.90
32865;DHT22;19219;44.500;11.188;2022-10-15T13:28:40;24.10;99.90
32865;DHT22;19219;44.500;11.188;2022-10-15T13:31:20;24.10;99.90
32865;DHT22;19219;44.500;11.188;2022-10-15T13:33:53;24.10;99.90
32865;DHT22;19219;44.500;11.188;2022-10-15T13:36:28;24.00;99.90
32865;DHT22;19219;44.500;11.188;2022-10-15T13:44:28;23.70;99.90
32865;DHT22;19219;44.500;11.188;2022-10-15T13:46:55;23.80;99.90
32865;DHT22;19219;44.500;11.188;2022-10-15T13:49:21;23.70;99.90
32865;DHT22;19219;44.500;11.188;2022-10-15T13:51:49;23.90;99.90
32865;DHT22;19219;44.500;11.188;2022-10-15T13:54:24;23.90;99.90
32865;DHT22;19219;44.500;11.188;2022-10-15T13:57:00;23.90;99.90
32865;DHT22;19219;44.500;11.188;2022-10-15T13:59:30;24.00;99.90
32865;DHT22;19219;44.500;11.188;2022-10-15T14:01:58;24.00;99.90
32865;DHT22;19219;44.500;11.188;2022-10-15T14:04:27;23.90;99.90
32865;DHT22;19219;44.500;11.188;2022-10-15T14:06:54;24.00;99.90
32865;DHT22;19219;44.500;11.188;2022-10-15T14:09:33;24.10;99.90
32865;DHT22;19219;44.500;11.188;2022-10-15T14:12:01;24.00;99.90
32865;DHT22;19219;44.500;11.188;2022-10-15T14:16:56;23.80;99.90
32865;DHT22;19219;44.500;11.188;2022-10-15T14:19:23;23.70;99.90
32865;DHT22;19219;44.500;11.188;2022-10-15T14:21:55;23.80;99.90
32865;DHT22;19219;44.500;11.188;2022-10-15T14:24:25;23.70;99.90
32865;DHT22;19219;44.500;11.188;2022-10-15T14:26:52;23.60;99.90
32865;DHT22;19219;44.500;11.188;2022-10-15T14:31:47;23.60;99.90
32865;DHT22;19219;44.500;11.188;2022-10-15T14:40:10;23.60;99.90
32865;DHT22;19219;44.500;11.188;2022-10-15T14:42:42;23.40;99.90
32865;DHT22;19219;44.500;11.188;2022-10-15T14:45:19;23.40;99.90
32865;DHT22;19219;44.500;11.188;2022-10-15T14:47:55;23.30;99.90
32865;DHT22;19219;44.500;11.188;2022-10-15T14:50:28;23.30;99.90
32865;DHT22;19219;44.500;11.188;2022-10-15T14:52:54;23.30;99.90
32865;DHT22;19219;44.500;11.188;2022-10-15T14:55:29;23.30;99.90
32865;DHT22;19219;44.500;11.188;2022-10-15T14:57:59;23.30;99.90
32865;DHT22;19219;44.500;11.188;2022-10-15T15:00:30;23.30;99.90
32865;DHT22;19219;44.500;11.188;2022-10-15T15:02:58;23.20;99.90
32865;DHT22;19219;44.500;11.188;2022-10-15T15:05:26;23.20;99.90
32865;DHT22;19219;44.500;11.188;2022-10-15T15:07:52;23.20;99.90
32865;DHT22;19219;44.500;11.188;2022-10-15T15:10:19;23.20;99.90
32865;DHT22;19219;44.500;11.188;2022-10-15T15:12:49;23.20;99.90
32865;DHT22;19219;44.500;11.188;2022-10-15T15:15:16;23.30;99.90
32865;DHT22;19219;44.500;11.188;2022-10-15T15:17:42;23.20;99.90
32865;DHT22;19219;44.500;11.188;2022-10-15T15:20:10;23.20;99.90
32865;DHT22;19219;44.500;11.188;2022-10-15T15:22:36;23.20;99.90
32865;DHT22;19219;44.500;11.188;2022-10-15T15:27:51;23.20;99.90
32865;DHT22;19219;44.500;11.188;2022-10-15T15:30:19;23.10;99.90
32865;DHT22;19219;44.500;11.188;2022-10-15T15:32:45;23.20;99.90
32865;DHT22;19219;44.500;11.188;2022-10-15T15:35:43;23.20;99.90
32865;DHT22;19219;44.500;11.188;2022-10-15T15:38:16;23.20;99.90
32865;DHT22;19219;44.500;11.188;2022-10-15T15:40:43;23.20;99.90
32865;DHT22;19219;44.500;11.188;2022-10-15T15:43:11;23.20;99.90
32865;DHT22;19219;44.500;11.188;2022-10-15T15:45:38;23.20;99.90
32865;DHT22;19219;44.500;11.188;2022-10-15T15:48:04;23.10;99.90
32865;DHT22;19219;44.500;11.188;2022-10-15T15:50:30;23.10;99.90
32865;DHT22;19219;44.500;11.188;2022-10-15T15:52:56;23.00;99.90
32865;DHT22;19219;44.500;11.188;2022-10-15T15:55:21;23.00;99.90
32865;DHT22;19219;44.500;11.188;2022-10-15T15:57:47;22.90;99.90
32865;DHT22;19219;44.500;11.188;2022-10-15T16:00:13;22.90;99.90
32865;DHT22;19219;44.500;11.188;2022-10-15T16:02:39;22.80;99.90
32865;DHT22;19219;44.500;11.188;2022-10-15T16:05:06;22.80;99.90
32865;DHT22;19219;44.500;11.188;2022-10-15T16:07:33;22.80;99.90
32865;DHT22;19219;44.500;11.188;2022-10-15T16:09:58;22.70;99.90
32865;DHT22;19219;44.500;11.188;2022-10-15T16:12:24;22.70;99.90
32865;DHT22;19219;44.500;11.188;2022-10-15T16:14:50;22.60;99.90
32865;DHT22;19219;44.500;11.188;2022-10-15T16:17:16;22.40;99.90
32865;DHT22;19219;44.500;11.188;2022-10-15T16:19:41;22.30;99.90
32865;DHT22;19219;44.500;11.188;2022-10-15T16:22:07;22.20;99.90
32865;DHT22;19219;44.500;11.188;2022-10-15T16:24:33;22.00;99.90
32865;DHT22;19219;44.500;11.188;2022-10-15T16:27:00;21.70;99.90
32865;DHT22;19219;44.500;11.188;2022-10-15T16:29:25;21.60;99.90
32865;DHT22;19219;44.500;11.188;2022-10-15T16:31:51;21.40;99.90
32865;DHT22;19219;44.500;11.188;2022-10-15T16:34:17;21.20;99.90
32865;DHT22;19219;44.500;11.188;2022-10-15T16:36:42;21.10;99.90
32865;DHT22;19219;44.500;11.188;2022-10-15T16:39:09;21.00;99.90
32865;DHT22;19219;44.500;11.188;2022-10-15T16:41:34;20.90;99.90
32865;DHT22;19219;44.500;11.188;2022-10-15T16:44:00;20.80;99.90
32865;DHT22;19219;44.500;11.188;2022-10-15T16:46:26;20.70;99.90
32865;DHT22;19219;44.500;11.188;2022-10-15T16:48:54;20.60;99.90
32865;DHT22;19219;44.500;11.188;2022-10-15T16:51:21;20.50;99.90
32865;DHT22;19219;44.500;11.188;2022-10-15T16:53:48;20.40;99.90
32865;DHT22;19219;44.500;11.188;2022-10-15T16:56:16;20.40;99.90
32865;DHT22;19219;44.500;11.188;2022-10-15T16:58:43;20.30;99.90
32865;DHT22;19219;44.500;11.188;2022-10-15T17:01:14;20.30;99.90
32865;DHT22;19219;44.500;11.188;2022-10-15T17:03:40;20.20;99.90
32865;DHT22;19219;44.500;11.188;2022-10-15T17:06:09;20.20;99.90
32865;DHT22;19219;44.500;11.188;2022-10-15T17:08:44;20.20;99.90
32865;DHT22;19219;44.500;11.188;2022-10-15T17:11:15;20.20;99.90
32865;DHT22;19219;44.500;11.188;2022-10-15T17:13:41;20.10;99.90
32865;DHT22;19219;44.500;11.188;2022-10-15T17:16:21;20.00;99.90
32865;DHT22;19219;44.500;11.188;2022-10-15T17:18:48;20.00;99.90
32865;DHT22;19219;44.500;11.188;2022-10-15T17:21:18;19.90;99.90
32865;DHT22;19219;44.500;11.188;2022-10-15T17:23:45;19.80;99.90
32865;DHT22;19219;44.500;11.188;2022-10-15T17:26:13;19.70;99.90
32865;DHT22;19219;44.500;11.188;2022-10-15T17:28:41;19.60;99.90
32865;DHT22;19219;44.500;11.188;2022-10-15T17:31:10;19.60;99.90